Time;durP1;ratioP1;P1;durP2;ratioP2;P2;SDS_P1;SDS_P2;PMS_P1;PMS_P2;Temp;Humidity;BMP_temperature;BMP_pressure;BME280_temperature;BME280_humidity;BME280_pressure;Samples;Min_cycle;Max_cycle;Signal;HPM_P1;HPM_P2
2021/06/30 00:00:26;;;;;;;7.10;1.73;;;;;;;13.49;92.06;96299.38;3564723;40;20774;-73
2021/06/30 00:02:54;;;;;;;5.10;1.53;;;;;;;13.45;92.70;96309.34;3564560;40;20452;-73
2021/06/30 00:05:22;;;;;;;3.27;1.40;;;;;;;13.60;91.97;96310.66;3568400;40;20714;-74
2021/06/30 00:07:52;;;;;;;4.93;1.70;;;;;;;13.67;90.71;96302.25;3563609;40;20710;-73
2021/06/30 00:10:21;;;;;;;3.00;1.80;;;;;;;13.71;91.04;96303.63;3563507;39;20504;-73
2021/06/30 00:12:54;;;;;;;1.57;1.40;;;;;;;13.64;90.41;96288.38;3563752;40;20768;-74
2021/06/30 00:15:31;;;;;;;1.47;1.33;;;;;;;13.65;91.19;96289.22;3562603;40;20717;-73
2021/06/30 00:18:04;;;;;;;2.37;1.27;;;;;;;13.75;91.13;96286.63;3562431;40;20713;-73
2021/06/30 00:20:37;;;;;;;10.03;1.33;;;;;;;13.70;90.48;96299.31;3562885;39;20473;-73
2021/06/30 00:23:10;;;;;;;5.40;1.30;;;;;;;13.74;90.56;96303.34;3561974;40;21082;-75
2021/06/30 00:25:43;;;;;;;4.03;1.47;;;;;;;13.73;89.25;96304.34;3560637;39;20479;-74
2021/06/30 00:28:16;;;;;;;6.90;1.40;;;;;;;13.77;88.66;96305.75;3562440;40;20462;-74
2021/06/30 00:30:50;;;;;;;3.50;1.30;;;;;;;13.76;86.92;96301.44;3560179;39;20713;-74
2021/06/30 00:33:23;;;;;;;9.60;0.90;;;;;;;13.82;86.26;96299.13;3564690;40;20462;-73
2021/06/30 00:35:56;;;;;;;1.63;1.03;;;;;;;13.80;85.79;96294.97;3563234;40;20464;-74
2021/06/30 00:38:28;;;;;;;2.43;1.50;;;;;;;13.83;86.15;96294.69;3564073;40;20526;-73
2021/06/30 00:41:02;;;;;;;3.23;1.30;;;;;;;13.81;85.76;96293.97;3563085;39;20833;-73
2021/06/30 00:43:35;;;;;;;1.70;1.00;;;;;;;13.76;86.32;96301.44;3564418;40;20753;-73
2021/06/30 00:46:09;;;;;;;2.37;1.20;;;;;;;13.79;86.68;96301.19;3564470;40;20920;-73
2021/06/30 00:48:42;;;;;;;1.87;0.90;;;;;;;13.81;86.50;96304.50;3561128;40;20434;-73
2021/06/30 00:51:15;;;;;;;2.83;0.83;;;;;;;13.82;86.81;96300.91;3560324;40;20990;-74
2021/06/30 00:53:48;;;;;;;1.60;0.90;;;;;;;13.73;85.41;96301.72;3558705;40;20457;-73
2021/06/30 00:56:23;;;;;;;1.20;0.97;;;;;;;13.76;84.88;96301.44;3562887;40;20553;-74
2021/06/30 00:58:58;;;;;;;1.43;0.80;;;;;;;13.74;85.06;96298.09;3562074;40;20821;-74
2021/06/30 01:01:32;;;;;;;1.47;0.80;;;;;;;13.68;85.16;96298.63;3561169;40;20445;-74
2021/06/30 01:04:05;;;;;;;1.33;0.70;;;;;;;13.63;84.44;96297.22;3559972;39;20682;-73
2021/06/30 01:06:38;;;;;;;2.33;1.30;;;;;;;13.71;85.06;96304.47;3560884;40;20453;-73
2021/06/30 01:09:11;;;;;;;0.90;0.77;;;;;;;13.66;85.45;96311.91;3563932;39;20491;-73
2021/06/30 01:11:44;;;;;;;1.37;0.80;;;;;;;13.64;84.83;96309.44;3562403;40;20457;-73
2021/06/30 01:14:24;;;;;;;6.10;0.80;;;;;;;13.61;85.11;96308.84;3561176;40;20749;-73
2021/06/30 01:17:00;;;;;;;1.97;0.70;;;;;;;13.59;85.08;96316.06;3559782;40;20443;-73
2021/06/30 01:19:34;;;;;;;1.00;0.80;;;;;;;13.52;85.80;96313.09;3563350;40;20457;-72
2021/06/30 01:22:09;;;;;;;2.83;0.90;;;;;;;13.47;85.57;96333.72;3560115;40;20460;-73
2021/06/30 01:24:38;;;;;;;1.40;0.90;;;;;;;13.48;85.52;96330.09;3560864;40;20765;-73
2021/06/30 01:27:13;;;;;;;0.80;0.60;;;;;;;13.41;86.06;96337.69;3559919;40;20550;-73
2021/06/30 01:29:47;;;;;;;2.60;0.80;;;;;;;13.42;84.86;96341.97;3560754;39;20849;-72
2021/06/30 01:32:15;;;;;;;1.10;0.70;;;;;;;13.45;84.97;96333.84;3561181;40;20449;-73
2021/06/30 01:34:49;;;;;;;6.93;1.00;;;;;;;13.43;84.85;96338.38;3560435;39;20923;-71
2021/06/30 01:37:22;;;;;;;0.90;0.67;;;;;;;13.40;85.20;96327.28;3560765;40;20775;-72
2021/06/30 01:39:56;;;;;;;1.30;0.87;;;;;;;13.37;85.98;96336.28;3562427;39;20849;-73
2021/06/30 01:42:29;;;;;;;3.90;0.83;;;;;;;13.32;86.87;96327.09;3570987;40;20697;-72
2021/06/30 01:45:02;;;;;;;5.00;0.93;;;;;;;13.30;86.92;96321.16;3563647;39;20474;-73
2021/06/30 01:47:35;;;;;;;1.50;0.90;;;;;;;13.13;89.21;96320.75;3567990;40;20449;-74
2021/06/30 01:50:09;;;;;;;1.20;0.90;;;;;;;13.08;89.56;96306.31;3562093;40;20851;-73
2021/06/30 01:52:43;;;;;;;1.80;1.00;;;;;;;13.09;90.19;96308.78;3562291;40;20465;-73
2021/06/30 01:55:17;;;;;;;2.23;0.90;;;;;;;12.92;91.25;96319.91;3558941;39;20522;-72
2021/06/30 01:57:51;;;;;;;13.40;1.70;;;;;;;12.77;91.82;96312.28;3562231;40;20499;-75
2021/06/30 02:00:21;;;;;;;1.10;0.90;;;;;;;12.77;92.30;96320.19;3564536;39;21182;-73
2021/06/30 02:03:00;;;;;;;1.43;0.90;;;;;;;12.70;92.11;96305.91;3561337;40;20830;-78
2021/06/30 02:05:32;;;;;;;1.47;1.00;;;;;;;12.71;92.57;96304.91;3563386;40;20561;-73
2021/06/30 02:08:06;;;;;;;1.27;0.83;;;;;;;12.70;93.33;96297.16;3563075;40;20472;-73
2021/06/30 02:10:41;;;;;;;2.60;0.90;;;;;;;12.65;92.44;96300.16;3564487;40;20450;-73
2021/06/30 02:13:14;;;;;;;4.23;1.20;;;;;;;12.69;92.40;96298.97;3564776;40;21214;-73
2021/06/30 02:15:46;;;;;;;4.53;0.90;;;;;;;12.66;92.27;96296.56;3561599;40;20486;-72
2021/06/30 02:18:15;;;;;;;3.43;0.90;;;;;;;12.67;92.72;96295.63;3561941;40;20777;-74
2021/06/30 02:20:48;;;;;;;11.47;0.80;;;;;;;12.62;92.87;96289.91;3561244;39;20481;-73
2021/06/30 02:23:21;;;;;;;3.97;0.90;;;;;;;12.63;93.15;96291.59;3560708;40;20901;-73
2021/06/30 02:25:55;;;;;;;1.27;0.80;;;;;;;12.58;92.89;96277.97;3561847;40;20730;-72
2021/06/30 02:28:28;;;;;;;2.00;1.07;;;;;;;12.55;93.00;96270.38;3568747;40;20440;-74
2021/06/30 02:31:01;;;;;;;1.37;0.80;;;;;;;12.61;93.18;96290.88;3563614;39;20482;-74
2021/06/30 02:33:34;;;;;;;1.80;0.93;;;;;;;12.56;92.69;96291.22;3561246;40;20458;-74
2021/06/30 02:36:07;;;;;;;2.03;1.30;;;;;;;12.54;92.42;96285.28;3565996;39;20473;-73
2021/06/30 02:38:35;;;;;;;1.13;0.90;;;;;;;12.58;92.20;96296.38;3561732;40;20727;-73
2021/06/30 02:41:09;;;;;;;1.70;1.13;;;;;;;12.61;91.52;96298.75;3562604;40;20827;-72
2021/06/30 02:43:42;;;;;;;0.90;0.70;;;;;;;12.57;91.69;96292.09;3560280;40;20451;-73
2021/06/30 02:46:16;;;;;;;4.30;0.97;;;;;;;12.50;91.09;96301.41;3559517;39;20505;-74
2021/06/30 02:48:44;;;;;;;1.03;0.70;;;;;;;12.54;91.24;96310.72;3570458;40;20698;-73
2021/06/30 02:51:13;;;;;;;0.90;0.70;;;;;;;12.51;89.81;96306.56;3564321;39;20458;-74
2021/06/30 02:53:41;;;;;;;0.90;0.67;;;;;;;12.52;89.86;96312.63;3568189;40;20969;-73
2021/06/30 02:56:11;;;;;;;1.10;0.70;;;;;;;12.45;89.63;96317.56;3564263;40;20843;-72
2021/06/30 02:58:44;;;;;;;0.80;0.60;;;;;;;12.49;89.38;96321.59;3567127;40;20478;-75
2021/06/30 03:01:18;;;;;;;1.40;0.70;;;;;;;12.50;89.39;96315.38;3564830;40;20471;-71
2021/06/30 03:03:51;;;;;;;0.90;0.67;;;;;;;12.43;87.97;96322.91;3564860;40;20822;-74
2021/06/30 03:06:24;;;;;;;2.03;0.60;;;;;;;12.37;89.07;96323.41;3562302;40;20467;-74
2021/06/30 03:08:58;;;;;;;0.90;0.60;;;;;;;12.27;87.81;96315.44;3561149;39;20442;-72
2021/06/30 03:11:30;;;;;;;4.00;0.60;;;;;;;12.38;88.81;96332.94;3565542;40;20486;-74
2021/06/30 03:14:03;;;;;;;0.70;0.50;;;;;;;12.37;87.88;96320.78;3564549;40;20727;-75
2021/06/30 03:16:30;;;;;;;0.77;0.53;;;;;;;12.25;88.87;96322.63;3564158;40;20461;-74
2021/06/30 03:18:58;;;;;;;2.60;0.60;;;;;;;12.28;88.74;96326.78;3561259;40;20472;-73
2021/06/30 03:21:31;;;;;;;0.80;0.50;;;;;;;12.25;88.80;96329.63;3560903;40;20700;-72
2021/06/30 03:24:05;;;;;;;2.80;0.80;;;;;;;12.21;89.63;96328.22;3565158;39;20459;-73
2021/06/30 03:26:39;;;;;;;0.80;0.50;;;;;;;12.10;89.60;96323.00;3561195;40;20443;-71
2021/06/30 03:29:12;;;;;;;0.80;0.60;;;;;;;11.95;91.04;96333.72;3561279;40;21110;-72
2021/06/30 03:31:46;;;;;;;2.10;0.60;;;;;;;11.93;91.42;96334.81;3564160;40;20486;-72
2021/06/30 03:34:19;;;;;;;0.80;0.60;;;;;;;11.91;91.30;96329.69;3563117;39;20507;-72
2021/06/30 03:36:51;;;;;;;0.80;0.50;;;;;;;11.88;91.27;96332.53;3569703;40;20462;-72
2021/06/30 03:39:24;;;;;;;0.93;0.60;;;;;;;11.91;92.04;96327.06;3559020;40;20450;-72
2021/06/30 03:41:58;;;;;;;1.40;0.60;;;;;;;11.89;90.90;96318.47;3562964;40;20452;-73
2021/06/30 03:44:32;;;;;;;2.70;0.70;;;;;;;11.88;91.66;96325.50;3566732;40;20915;-71
2021/06/30 03:47:05;;;;;;;0.90;0.63;;;;;;;11.87;91.06;96320.34;3566707;40;20531;-70
2021/06/30 03:49:37;;;;;;;0.87;0.60;;;;;;;11.90;92.10;96320.16;3562122;40;20469;-70
2021/06/30 03:52:15;;;;;;;4.43;0.60;;;;;;;11.92;90.94;96325.25;3563045;40;20500;-72
2021/06/30 03:54:47;;;;;;;1.47;0.60;;;;;;;11.91;91.34;96319.19;3564097;39;20461;-72
2021/06/30 03:57:21;;;;;;;1.00;0.70;;;;;;;11.81;91.14;96326.09;3562190;40;21266;-73
2021/06/30 03:59:54;;;;;;;1.43;0.80;;;;;;;11.88;91.26;96327.28;3564521;40;20694;-74
2021/06/30 04:02:27;;;;;;;6.43;0.70;;;;;;;11.84;91.40;96324.06;3558278;40;20912;-74
2021/06/30 04:04:59;;;;;;;0.80;0.60;;;;;;;11.77;90.78;96319.41;3560745;40;20845;-73
2021/06/30 04:07:34;;;;;;;1.30;0.70;;;;;;;11.77;90.95;96329.91;3563887;40;20479;-73
2021/06/30 04:10:08;;;;;;;0.90;0.60;;;;;;;11.74;90.74;96335.38;3561360;39;20838;-72
2021/06/30 04:12:42;;;;;;;1.00;0.73;;;;;;;11.70;90.96;96333.94;3559052;40;20857;-72
2021/06/30 04:15:11;;;;;;;0.80;0.60;;;;;;;11.65;91.16;96329.91;3559687;40;21096;-72
2021/06/30 04:17:44;;;;;;;0.80;0.60;;;;;;;11.65;91.14;96329.91;3561883;40;20456;-73
2021/06/30 04:20:17;;;;;;;2.40;0.60;;;;;;;11.62;91.34;96326.66;3560782;39;20483;-74
2021/06/30 04:22:50;;;;;;;4.00;0.60;;;;;;;11.66;91.04;96330.72;3563100;40;20465;-73
2021/06/30 04:25:23;;;;;;;0.70;0.50;;;;;;;11.62;90.80;96324.91;3561362;39;20830;-72
2021/06/30 04:27:52;;;;;;;1.30;0.50;;;;;;;11.72;90.71;96326.78;3561078;40;20465;-72
2021/06/30 04:30:25;;;;;;;1.43;0.70;;;;;;;11.62;90.46;96306.53;3560973;39;20464;-73
2021/06/30 04:32:57;;;;;;;3.53;0.60;;;;;;;11.76;90.13;96329.06;3563442;40;20524;-72
2021/06/30 04:35:34;;;;;;;0.80;0.50;;;;;;;11.77;90.70;96329.91;3562608;40;20466;-72
2021/06/30 04:38:07;;;;;;;0.80;0.50;;;;;;;11.75;90.33;96344.94;3561549;40;20826;-73
2021/06/30 04:40:35;;;;;;;3.00;0.70;;;;;;;11.82;89.96;96333.00;3559481;39;20463;-75
2021/06/30 04:43:09;;;;;;;0.83;0.60;;;;;;;11.83;90.41;96330.25;3564987;40;20455;-75
2021/06/30 04:45:37;;;;;;;8.43;4.07;;;;;;;11.88;90.52;96329.91;3564547;39;20509;-73
2021/06/30 04:48:10;;;;;;;30.23;16.27;;;;;;;11.80;89.84;96329.66;3561453;40;20761;-74
2021/06/30 04:50:43;;;;;;;1.20;0.60;;;;;;;11.86;90.14;96323.94;3562376;40;20469;-73
2021/06/30 04:53:16;;;;;;;0.80;0.63;;;;;;;11.90;90.08;96328.03;3560834;40;20439;-74
2021/06/30 04:55:49;;;;;;;2.77;0.90;;;;;;;11.87;90.05;96323.81;3562081;39;20480;-73
2021/06/30 04:58:25;;;;;;;4.40;0.60;;;;;;;11.92;90.45;96325.25;3563868;40;20476;-73
2021/06/30 05:00:58;;;;;;;0.80;0.50;;;;;;;12.01;88.68;96317.50;3559231;39;20698;-75
2021/06/30 05:03:31;;;;;;;0.90;0.50;;;;;;;12.04;88.47;96317.28;3557731;40;20467;-73
2021/06/30 05:06:03;;;;;;;1.10;0.60;;;;;;;12.03;88.52;96318.22;3560685;40;20450;-73
2021/06/30 05:08:36;;;;;;;2.50;0.50;;;;;;;12.22;88.41;96324.66;3561612;40;20500;-73
2021/06/30 05:11:09;;;;;;;0.87;0.50;;;;;;;12.15;88.24;96319.06;3558728;40;20466;-74
2021/06/30 05:13:43;;;;;;;0.80;0.50;;;;;;;12.13;88.57;96314.88;3565777;40;20455;-73
2021/06/30 05:16:16;;;;;;;0.80;0.50;;;;;;;12.16;87.23;96322.50;3561369;40;20512;-72
2021/06/30 05:18:49;;;;;;;4.90;1.80;;;;;;;12.11;87.66;96311.53;3562924;40;20942;-73
2021/06/30 05:21:22;;;;;;;1.30;0.60;;;;;;;12.24;87.92;96322.72;3564170;40;20463;-73
2021/06/30 05:23:55;;;;;;;6.73;0.60;;;;;;;12.20;88.13;96316.06;3564963;40;20612;-74
2021/06/30 05:26:28;;;;;;;1.20;0.63;;;;;;;12.22;88.29;96317.59;3565631;40;20470;-72
2021/06/30 05:29:02;;;;;;;0.80;0.50;;;;;;;12.16;87.03;96319.88;3562024;40;20445;-74
2021/06/30 05:31:35;;;;;;;0.80;0.50;;;;;;;12.26;87.57;96315.56;3565962;40;20873;-75
2021/06/30 05:34:08;;;;;;;1.00;0.60;;;;;;;12.27;86.69;96317.25;3564484;39;20687;-74
2021/06/30 05:36:47;;;;;;;1.00;0.50;;;;;;;12.19;86.98;96320.47;3563699;40;20885;-76
2021/06/30 05:39:21;;;;;;;0.80;0.50;;;;;;;12.23;86.02;96324.53;3564441;39;20965;-74
2021/06/30 05:41:54;;;;;;;0.77;0.50;;;;;;;12.26;85.97;96321.63;3566869;40;20442;-75
2021/06/30 05:44:28;;;;;;;0.80;0.50;;;;;;;12.35;86.12;96322.72;3564283;39;20468;-77
2021/06/30 05:47:01;;;;;;;2.33;0.60;;;;;;;12.38;86.25;96319.00;3562600;40;20465;-75
2021/06/30 05:49:34;;;;;;;1.37;0.80;;;;;;;12.42;86.79;96323.88;3563685;40;20504;-74
2021/06/30 05:52:07;;;;;;;0.90;0.53;;;;;;;12.47;85.88;96323.50;3567696;40;20862;-73
2021/06/30 05:54:40;;;;;;;0.70;0.50;;;;;;;12.58;85.94;96318.22;3562601;40;20961;-73
2021/06/30 05:57:13;;;;;;;0.90;0.50;;;;;;;12.82;85.72;96317.19;3565614;40;20764;-74
2021/06/30 05:59:47;;;;;;;0.80;0.50;;;;;;;12.97;83.73;96322.97;3564975;39;20500;-76
2021/06/30 06:02:19;;;;;;;1.17;0.60;;;;;;;13.10;83.03;96339.38;3565950;40;20532;-74
2021/06/30 06:04:47;;;;;;;0.90;0.50;;;;;;;13.16;82.34;96330.16;3566328;40;20464;-74
2021/06/30 06:07:20;;;;;;;0.87;0.60;;;;;;;13.41;81.11;96334.22;3561949;40;20461;-74
2021/06/30 06:09:54;;;;;;;0.90;0.60;;;;;;;13.59;81.08;96332.66;3566699;40;20459;-75
2021/06/30 06:12:27;;;;;;;1.37;0.70;;;;;;;13.94;79.24;96326.16;3567741;40;20465;-73
2021/06/30 06:15:02;;;;;;;1.50;0.63;;;;;;;14.18;79.39;96328.47;3563170;40;20849;-75
2021/06/30 06:17:35;;;;;;;1.07;0.70;;;;;;;14.42;79.15;96328.09;3566799;40;20454;-74
2021/06/30 06:20:10;;;;;;;0.90;0.70;;;;;;;14.37;78.38;96329.50;3565577;40;21246;-74
2021/06/30 06:22:39;;;;;;;0.87;0.60;;;;;;;14.25;78.70;96331.41;3562633;40;20744;-72
2021/06/30 06:25:12;;;;;;;7.00;3.57;;;;;;;14.18;78.54;96332.91;3563588;40;21120;-72
2021/06/30 06:27:45;;;;;;;1.00;0.50;;;;;;;14.29;76.17;96337.22;3565440;40;20817;-72
2021/06/30 06:30:21;;;;;;;0.80;0.60;;;;;;;14.30;77.15;96338.91;3565053;39;20680;-72
2021/06/30 06:32:53;;;;;;;1.90;0.67;;;;;;;14.33;78.68;96333.34;3563394;40;20456;-74
2021/06/30 06:35:22;;;;;;;2.60;0.70;;;;;;;14.13;78.26;96337.72;3560057;40;20806;-74
2021/06/30 06:37:54;;;;;;;0.90;0.70;;;;;;;14.15;78.73;96333.16;3562833;40;20492;-73
2021/06/30 06:40:22;;;;;;;0.80;0.60;;;;;;;13.87;79.60;96335.56;3563772;39;20489;-71
2021/06/30 06:42:55;;;;;;;7.10;0.80;;;;;;;13.96;79.01;96342.66;3563619;40;20465;-73
2021/06/30 06:45:30;;;;;;;1.23;0.60;;;;;;;13.85;79.20;96342.75;3562847;40;20799;-75
2021/06/30 06:48:03;;;;;;;0.90;0.70;;;;;;;13.97;79.13;96340.84;3561799;40;20450;-73
2021/06/30 06:50:35;;;;;;;0.80;0.53;;;;;;;13.97;79.33;96340.84;3563160;39;20897;-73
2021/06/30 06:53:08;;;;;;;1.10;0.60;;;;;;;14.00;78.85;96338.81;3559881;40;21066;-74
2021/06/30 06:55:41;;;;;;;0.73;0.50;;;;;;;13.87;77.84;96318.94;3563152;39;21204;-74
2021/06/30 06:58:14;;;;;;;2.50;1.23;;;;;;;14.17;78.05;96331.22;3560244;40;20862;-72
2021/06/30 07:00:48;;;;;;;1.43;0.63;;;;;;;14.18;77.05;96335.53;3564382;40;20841;-73
2021/06/30 07:03:21;;;;;;;1.23;0.60;;;;;;;13.98;77.73;96338.09;3559347;40;21109;-72
2021/06/30 07:05:50;;;;;;;0.90;0.60;;;;;;;14.20;77.11;96336.22;3561043;39;20485;-74
2021/06/30 07:08:23;;;;;;;0.77;0.50;;;;;;;14.33;77.27;96336.81;3566707;40;20833;-74
2021/06/30 07:10:56;;;;;;;1.37;0.70;;;;;;;14.67;75.79;96331.22;3567036;40;20716;-73
2021/06/30 07:13:29;;;;;;;0.80;0.60;;;;;;;14.98;74.12;96341.66;3568454;40;21321;-72
2021/06/30 07:16:04;;;;;;;2.97;0.57;;;;;;;15.17;73.81;96336.38;3565609;39;20939;-71
2021/06/30 07:18:37;;;;;;;0.80;0.60;;;;;;;15.02;74.50;96333.31;3564682;40;20485;-73
2021/06/30 07:21:11;;;;;;;1.63;0.60;;;;;;;14.94;73.81;96324.44;3565793;40;20465;-72
2021/06/30 07:23:44;;;;;;;1.87;0.60;;;;;;;15.65;71.43;96328.50;3563452;40;20453;-72
2021/06/30 07:26:12;;;;;;;0.80;0.53;;;;;;;15.56;70.68;96336.31;3561444;40;20461;-73
2021/06/30 07:28:45;;;;;;;3.63;0.60;;;;;;;15.75;71.91;96329.31;3562826;40;20857;-75
2021/06/30 07:31:20;;;;;;;1.17;0.70;;;;;;;15.81;72.47;96339.31;3560897;40;20477;-75
2021/06/30 07:33:52;;;;;;;0.80;0.50;;;;;;;15.66;68.80;96340.69;3563406;40;20443;-75
2021/06/30 07:36:25;;;;;;;0.80;0.60;;;;;;;15.30;69.76;96343.16;3564546;40;20520;-75
2021/06/30 07:38:58;;;;;;;1.10;0.50;;;;;;;15.27;71.06;96344.28;3562929;39;20453;-73
2021/06/30 07:44:29;;;;;;;0.80;0.60;;;;;;;14.91;70.91;96345.81;3559696;40;20470;-74
2021/06/30 07:46:58;;;;;;;5.63;0.70;;;;;;;15.02;71.31;96337.75;3562633;40;20435;-72
2021/06/30 07:49:26;;;;;;;1.83;0.60;;;;;;;14.98;70.88;96336.38;3564214;39;20496;-75
2021/06/30 07:51:54;;;;;;;0.80;0.60;;;;;;;14.80;71.93;96349.41;3559507;40;20562;-74
2021/06/30 07:54:23;;;;;;;0.90;0.60;;;;;;;14.68;72.80;96350.50;3559033;39;20467;-74
2021/06/30 07:56:51;;;;;;;2.23;0.60;;;;;;;14.61;73.95;96352.84;3562271;40;20509;-73
2021/06/30 07:59:19;;;;;;;2.40;0.57;;;;;;;14.52;73.76;96356.25;3561356;39;20536;-73
2021/06/30 08:01:46;;;;;;;0.90;0.60;;;;;;;14.34;73.00;96348.19;3564902;40;20718;-73
2021/06/30 08:04:16;;;;;;;2.20;0.60;;;;;;;14.36;76.33;96356.78;3564039;39;20527;-74
2021/06/30 08:06:44;;;;;;;78.80;47.03;;;;;;;14.35;78.57;96355.97;3560002;40;20473;-72
2021/06/30 08:09:11;;;;;;;1.33;0.97;;;;;;;14.20;80.61;96359.94;3563757;39;20481;-74
2021/06/30 08:11:57;;;;;;;1.00;0.60;;;;;;;14.36;80.17;96354.97;3561887;40;20539;-74
2021/06/30 08:14:25;;;;;;;0.90;0.60;;;;;;;14.43;81.08;96368.47;3569669;40;20549;-73
2021/06/30 08:16:53;;;;;;;0.87;0.53;;;;;;;14.30;75.93;96363.41;3560484;40;21120;-72
2021/06/30 08:19:23;;;;;;;0.80;0.60;;;;;;;14.20;76.88;96360.75;3560043;39;20701;-72
2021/06/30 08:21:51;;;;;;;0.80;0.50;;;;;;;14.36;75.98;96357.63;3565324;40;20752;-74
2021/06/30 08:24:19;;;;;;;4.50;0.50;;;;;;;14.65;76.27;96364.78;3563558;39;20472;-73
2021/06/30 08:26:48;;;;;;;1.20;0.60;;;;;;;14.86;74.78;96359.41;3565609;40;20446;-75
2021/06/30 08:29:19;;;;;;;1.30;0.50;;;;;;;15.42;74.51;96363.13;3562651;39;20741;-74
2021/06/30 08:31:47;;;;;;;0.80;0.50;;;;;;;15.34;73.14;96357.72;3562224;40;21153;-73
2021/06/30 08:34:16;;;;;;;1.10;0.57;;;;;;;15.08;73.60;96362.75;3565879;39;20830;-73
2021/06/30 08:36:45;;;;;;;1.00;0.60;;;;;;;15.05;74.51;96363.84;3565149;40;20469;-74
2021/06/30 08:39:13;;;;;;;0.90;0.50;;;;;;;15.03;74.92;96364.00;3564715;39;20469;-74
2021/06/30 08:41:41;;;;;;;0.80;0.50;;;;;;;14.72;73.52;96365.91;3563136;40;20459;-75
2021/06/30 08:44:10;;;;;;;1.20;0.60;;;;;;;14.55;73.08;96370.00;3562904;40;20835;-74
2021/06/30 08:46:40;;;;;;;2.73;0.53;;;;;;;14.44;75.49;96365.69;3564087;40;20842;-76
2021/06/30 08:49:10;;;;;;;0.83;0.53;;;;;;;14.60;74.95;96366.97;3562411;39;20811;-76
2021/06/30 08:51:39;;;;;;;0.90;0.53;;;;;;;14.43;73.84;96366.66;3566159;40;20585;-73
2021/06/30 08:54:09;;;;;;;0.70;0.50;;;;;;;14.57;75.21;96368.09;3573069;39;20833;-72
2021/06/30 08:56:39;;;;;;;0.80;0.50;;;;;;;14.73;73.71;96370.19;3562165;40;20557;-72
2021/06/30 08:59:08;;;;;;;1.00;0.53;;;;;;;14.74;74.20;96373.66;3562526;39;20975;-73
2021/06/30 09:01:36;;;;;;;1.10;0.53;;;;;;;14.94;73.38;96372.72;3569367;40;20963;-74
2021/06/30 09:04:06;;;;;;;2.43;0.50;;;;;;;15.09;71.51;96369.66;3567232;39;20934;-73
2021/06/30 09:06:34;;;;;;;0.90;0.50;;;;;;;15.03;73.02;96368.41;3563080;40;20545;-74
2021/06/30 09:09:10;;;;;;;1.70;1.40;;;;;;;15.15;70.81;96364.69;3567484;39;20842;-72
2021/06/30 09:11:38;;;;;;;3.53;1.70;;;;;;;15.13;71.21;96365.78;3562857;40;20456;-74
2021/06/30 09:14:19;;;;;;;0.97;0.60;;;;;;;15.06;71.35;96360.25;3562855;39;20450;-75
2021/06/30 09:17:17;;;;;;;2.37;0.60;;;;;;;15.25;71.55;96371.75;3561575;40;20475;-73
2021/06/30 09:20:05;;;;;;;0.70;0.50;;;;;;;15.31;70.64;96368.53;3563176;39;20858;-75
2021/06/30 09:22:42;;;;;;;1.63;0.57;;;;;;;15.53;70.78;96373.53;3561138;40;20455;-75
2021/06/30 09:25:31;;;;;;;0.80;0.60;;;;;;;15.52;70.46;96371.03;3562785;40;20544;-74
2021/06/30 09:28:00;;;;;;;0.70;0.50;;;;;;;15.29;70.59;96367.84;3565782;40;20765;-73
2021/06/30 09:30:28;;;;;;;1.73;0.60;;;;;;;15.31;69.08;96373.81;3561020;39;20465;-72
2021/06/30 09:32:58;;;;;;;0.80;0.60;;;;;;;15.44;69.83;96366.44;3565719;40;20549;-73
2021/06/30 09:35:29;;;;;;;0.70;0.50;;;;;;;15.61;68.68;96370.19;3561328;39;20832;-73
2021/06/30 09:38:28;;;;;;;9.33;5.00;;;;;;;15.75;69.04;96371.56;3564932;40;20857;-74
2021/06/30 09:40:58;;;;;;;1.00;0.70;;;;;;;16.13;67.41;96367.97;3563643;39;20505;-72
2021/06/30 09:43:29;;;;;;;0.80;0.60;;;;;;;16.86;66.29;96364.53;3563497;40;20993;-73
2021/06/30 09:45:58;;;;;;;2.27;0.50;;;;;;;17.30;64.43;96366.41;3563189;40;20560;-73
2021/06/30 09:48:29;;;;;;;0.70;0.50;;;;;;;18.31;61.28;96360.59;3566807;40;20469;-75
2021/06/30 09:50:57;;;;;;;0.87;0.50;;;;;;;18.37;58.57;96355.47;3562590;40;20847;-73
2021/06/30 09:53:33;;;;;;;1.37;0.50;;;;;;;18.62;57.06;96355.56;3562801;40;20459;-73
2021/06/30 09:56:14;;;;;;;0.80;0.60;;;;;;;18.25;59.95;96353.25;3563231;39;20463;-72
2021/06/30 09:59:03;;;;;;;1.00;0.60;;;;;;;17.97;57.52;96319.03;3561369;40;20982;-73
2021/06/30 10:01:31;;;;;;;3.27;1.17;;;;;;;17.94;58.19;96346.69;3561939;40;20459;-76
2021/06/30 10:04:00;;;;;;;0.80;0.50;;;;;;;17.30;57.21;96353.16;3565444;39;20857;-73
2021/06/30 10:06:33;;;;;;;1.40;0.60;;;;;;;17.51;58.76;96353.66;3565129;40;20450;-75
2021/06/30 10:09:05;;;;;;;2.50;0.70;;;;;;;17.38;59.90;96353.22;3566427;39;20898;-75
2021/06/30 10:11:35;;;;;;;1.27;0.60;;;;;;;17.89;58.18;96351.59;3565807;40;20914;-75
2021/06/30 10:14:03;;;;;;;0.83;0.50;;;;;;;17.52;58.00;96347.38;3565561;40;20555;-74
2021/06/30 10:16:31;;;;;;;2.07;0.73;;;;;;;17.89;59.58;96356.91;3568786;40;20796;-76
2021/06/30 10:19:02;;;;;;;0.80;0.50;;;;;;;18.04;57.86;96351.03;3564739;39;20469;-73
2021/06/30 10:21:31;;;;;;;0.80;0.57;;;;;;;18.07;58.42;96361.31;3567170;40;20455;-74
2021/06/30 10:24:00;;;;;;;6.03;0.60;;;;;;;18.42;59.94;96368.25;3568475;40;20463;-73
2021/06/30 10:26:29;;;;;;;0.83;0.60;;;;;;;17.42;58.92;96369.63;3565287;40;20439;-73
2021/06/30 10:29:00;;;;;;;0.90;0.60;;;;;;;17.47;60.55;96357.59;3562487;39;20516;-73
2021/06/30 10:31:35;;;;;;;1.00;0.60;;;;;;;17.19;60.83;96365.66;3564546;40;20903;-73
2021/06/30 10:34:05;;;;;;;1.10;0.60;;;;;;;17.62;60.31;96357.88;3564994;39;20712;-73
2021/06/30 10:36:52;;;;;;;0.80;0.50;;;;;;;17.83;60.19;96359.31;3566469;40;20804;-75
2021/06/30 10:39:21;;;;;;;2.50;0.60;;;;;;;17.51;59.56;96361.59;3561685;40;20876;-75
2021/06/30 10:41:53;;;;;;;0.70;0.50;;;;;;;17.32;61.33;96361.78;3563796;40;20430;-72
2021/06/30 10:44:25;;;;;;;1.03;0.67;;;;;;;17.11;62.01;96352.38;3561517;39;20914;-71
2021/06/30 10:46:55;;;;;;;0.90;0.60;;;;;;;16.99;61.51;96351.75;3560467;40;20823;-70
2021/06/30 10:49:29;;;;;;;1.30;0.73;;;;;;;16.97;62.85;96355.53;3564446;39;20815;-72
2021/06/30 10:51:59;;;;;;;1.10;0.60;;;;;;;16.75;63.67;96357.59;3564273;40;21129;-72
2021/06/30 10:54:42;;;;;;;1.67;0.70;;;;;;;16.60;65.13;96356.44;3562493;40;20556;-71
2021/06/30 10:57:26;;;;;;;0.90;0.60;;;;;;;16.70;67.13;96345.81;3563081;40;20765;-73
2021/06/30 11:00:32;;;;;;;0.77;0.50;;;;;;;16.21;68.26;96360.13;3559378;39;20459;-73
2021/06/30 11:03:23;;;;;;;2.00;0.83;;;;;;;16.00;71.46;96343.69;3542100;40;20932;-73
2021/06/30 11:05:52;;;;;;;1.40;0.80;;;;;;;16.01;74.30;96363.81;3561862;39;21142;-72
2021/06/30 11:08:43;;;;;;;1.03;0.67;;;;;;;15.90;73.75;96354.28;3561482;40;20455;-73
2021/06/30 11:11:13;;;;;;;0.90;0.60;;;;;;;15.72;73.23;96366.53;3559004;40;20549;-72
2021/06/30 11:14:00;;;;;;;5.40;0.70;;;;;;;15.54;73.63;96359.38;3558116;40;20851;-72
2021/06/30 11:16:53;;;;;;;0.80;0.60;;;;;;;15.11;73.55;96338.72;3561141;40;20455;-71
2021/06/30 11:19:51;;;;;;;5.13;0.73;;;;;;;15.32;73.78;96354.38;3559001;40;20462;-72
2021/06/30 11:22:31;;;;;;;0.90;0.60;;;;;;;15.28;75.63;96347.72;3524718;40;20442;-71
2021/06/30 11:25:01;;;;;;;5.73;3.90;;;;;;;15.59;76.87;96357.13;3556822;39;20485;-73
2021/06/30 11:27:49;;;;;;;1.17;0.80;;;;;;;15.56;73.33;96353.91;3564557;40;20844;-71
2021/06/30 11:30:35;;;;;;;1.40;0.60;;;;;;;15.55;72.88;96354.91;3562433;40;20452;-72
2021/06/30 11:33:13;;;;;;;0.80;0.50;;;;;;;15.84;72.30;96348.72;3567824;40;20672;-72
2021/06/30 11:35:45;;;;;;;2.97;0.70;;;;;;;15.54;75.50;96354.09;3563132;39;20467;-72
2021/06/30 11:38:19;;;;;;;1.10;0.63;;;;;;;15.76;73.38;96338.94;3560919;40;20445;-72
2021/06/30 11:41:05;;;;;;;1.40;0.80;;;;;;;15.84;73.87;96336.38;3563434;39;20806;-72
2021/06/30 11:43:36;;;;;;;0.90;0.70;;;;;;;16.01;73.85;96333.00;3563118;40;20547;-72
2021/06/30 11:46:06;;;;;;;2.00;0.70;;;;;;;15.77;73.76;96338.75;3561559;40;20964;-72
2021/06/30 11:48:37;;;;;;;3.17;0.70;;;;;;;15.65;72.24;96333.78;3560662;40;20764;-72
2021/06/30 11:51:06;;;;;;;1.20;0.60;;;;;;;15.48;76.56;96330.06;3562644;39;20814;-72
2021/06/30 11:53:40;;;;;;;2.80;0.70;;;;;;;15.19;75.67;96331.78;3562678;40;20867;-73
2021/06/30 11:56:10;;;;;;;1.00;0.73;;;;;;;15.16;76.39;96336.50;3560950;39;20875;-71
2021/06/30 11:58:51;;;;;;;2.90;0.90;;;;;;;15.03;75.88;96335.00;3561544;40;20863;-72
2021/06/30 12:01:25;;;;;;;0.90;0.60;;;;;;;14.84;77.55;96332.34;3562749;40;20930;-71
2021/06/30 12:04:12;;;;;;;0.90;0.60;;;;;;;14.84;79.37;96329.72;3563198;39;20442;-74